Date,TemperatureHighF,TemperatureAvgF,TemperatureLowF,DewpointHighF,DewpointAvgF,DewpointLowF,HumidityHigh,HumidityAvg,HumidityLow,PressureMaxIn,PressureMinIn,WindSpeedMaxMPH,WindSpeedAvgMPH,GustSpeedMaxMPH,PrecipitationSumIn
2013-1-1,36.8,34.3,31.0,32.6,30.2,24.6,90,85,77,30.16,30.04,7,0,7,0.03
2013-1-2,34.4,28.8,24.8,25.8,22.0,20.0,82,76,59,30.27,30.15,7,0,7,0.00
2013-1-3,40.4,28.6,19.7,26.9,20.6,16.2,87,73,50,30.40,30.24,14,1,15,0.00
2013-1-4,39.7,31.9,25.3,28.8,23.9,19.9,84,73,57,30.42,30.35,17,2,17,0.00
2013-1-5,46.7,33.7,20.8,31.4,25.4,17.0,88,73,52,30.39,30.19,12,1,12,0.00
2013-1-6,40.7,36.2,26.4,33.5,27.9,19.8,77,72,66,30.39,30.10,16,4,17,0.00
2013-1-7,42.7,29.0,19.1,28.5,21.5,15.3,87,74,52,30.48,30.25,7,0,7,0.00
2013-1-8,55.1,36.1,22.5,36.9,27.6,18.4,87,73,48,30.33,30.21,15,1,15,0.00
2013-1-9,60.4,47.4,34.9,46.7,39.8,30.3,85,76,54,30.48,30.22,10,0,10,0.00
2013-1-10,48.5,44.2,39.6,45.5,40.2,34.9,90,86,78,30.48,30.01,8,0,8,0.16
2013-1-11,67.7,57.1,46.1,56.3,50.2,43.3,90,79,56,30.01,29.84,20,3,20,0.45
2013-1-12,67.9,63.0,56.6,63.4,59.1,51.7,90,87,80,29.99,29.74,17,2,18,0.06
2013-1-13,68.2,51.7,31.6,61.3,48.1,27.3,90,88,77,30.19,29.71,21,3,21,2.67
2013-1-14,32.2,28.3,25.3,27.2,21.9,19.7,84,77,68,30.46,30.19,11,2,11,0.00
2013-1-15,32.2,27.9,22.9,27.8,22.6,18.5,89,80,72,30.35,30.07,15,2,15,0.23
2013-1-16,33.7,31.8,30.3,28.9,27.8,26.8,89,85,82,30.14,30.01,8,1,8,0.00
2013-1-17,46.9,35.9,30.5,34.2,27.6,21.8,85,73,45,30.42,30.11,14,1,14,0.00
2013-1-18,44.7,33.4,21.1,27.7,22.8,17.3,87,66,47,30.55,30.28,14,2,14,0.00
2013-1-19,56.7,46.6,36.4,33.0,29.3,26.1,68,52,36,30.28,29.98,23,6,23,0.00
2013-1-20,48.0,39.3,27.6,34.8,19.3,10.0,70,46,26,30.26,30.01,15,2,18,0.00
2013-1-21,31.5,25.1,15.5,17.7,9.6,1.4,73,52,35,30.32,30.16,22,4,22,0.00
2013-1-22,23.6,16.8,10.7,3.9,0.3,-2.9,58,48,36,30.46,30.31,15,2,15,0.00
2013-1-23,38.7,25.5,14.1,19.5,11.1,3.1,69,55,40,30.41,30.11,14,2,14,0.00
2013-1-24,32.1,25.3,19.9,20.1,5.5,-3.2,63,44,26,30.59,30.16,16,3,16,0.00
2013-1-25,28.8,25.3,22.8,23.5,16.5,3.0,85,71,41,30.42,30.09,10,2,10,0.00
2013-1-26,38.6,29.0,20.1,24.1,20.7,16.6,88,72,51,30.41,30.19,9,1,9,0.00
2013-1-27,45.6,33.5,23.5,40.5,26.1,16.8,90,75,59,30.42,30.14,10,1,10,0.08
2013-1-28,56.6,51.1,45.6,51.5,46.1,40.1,90,83,74,30.15,30.05,9,3,18,0.19
2013-1-29,67.1,60.8,54.0,59.8,55.0,49.8,88,81,77,30.05,29.53,31,4,31,0.00
2013-1-30,69.7,52.8,32.6,61.2,47.0,24.1,90,81,69,29.71,29.30,31,6,31,0.74
2013-1-31,36.6,30.1,17.1,26.9,20.8,8.5,87,68,54,30.16,29.70,27,7,27,0.02
2013-2-1,21.6,15.2,7.3,10.0,5.2,-1.3,76,64,55,30.50,30.16,18,3,18,0.00
2013-2-2,35.6,28.3,17.3,28.9,21.4,9.9,85,75,60,30.36,30.04,17,2,17,0.03
2013-2-3,31.6,28.3,20.6,25.6,21.4,15.8,83,75,64,30.17,29.98,18,2,18,0.00
2013-2-4,47.0,33.2,18.5,40.1,26.9,14.5,90,78,53,30.15,29.83,16,2,16,0.09
2013-2-5,51.1,42.5,35.9,39.0,35.1,31.8,88,76,56,30.03,29.86,13,2,14,0.00
2013-2-6,44.9,36.1,27.0,33.3,29.0,23.1,88,76,60,30.26,30.03,8,0,8,0.00
2013-2-7,66.9,48.0,33.5,44.2,35.8,28.3,83,65,41,30.18,29.82,14,1,14,0.00
2013-2-8,54.0,39.3,32.7,46.8,32.6,25.6,89,77,67,30.34,29.81,21,3,21,0.07
2013-2-9,47.0,36.6,26.2,27.8,25.1,21.2,83,64,44,30.41,30.17,11,1,11,0.00
2013-2-10,57.9,45.3,34.4,49.5,37.7,24.9,89,75,48,30.17,29.79,21,2,21,0.13
2013-2-11,55.1,48.4,35.2,51.0,35.5,26.3,89,62,42,30.10,29.79,24,6,24,0.00
2013-2-12,50.9,39.2,26.8,33.0,27.5,22.6,86,64,42,30.17,29.89,8,0,8,0.00
2013-2-13,44.0,37.5,32.7,35.9,30.0,27.6,87,74,62,29.93,29.78,14,2,14,0.06
2013-2-14,58.0,43.9,33.7,40.2,34.5,29.4,87,71,46,30.00,29.85,17,4,17,0.00
2013-2-15,46.0,38.4,28.3,34.6,27.7,17.7,80,66,47,30.18,30.00,20,2,20,0.00
2013-2-16,36.1,28.1,20.9,20.3,14.8,8.8,82,59,37,30.17,30.09,21,3,21,0.00
2013-2-17,40.6,28.9,18.7,20.3,15.1,11.5,82,57,37,30.28,30.15,13,1,13,0.00
2013-2-18,61.9,43.1,23.4,41.6,29.4,16.8,82,61,35,30.19,29.74,35,4,35,0.12
2013-2-19,47.2,36.2,24.1,42.0,25.8,13.5,87,67,46,30.21,29.70,27,7,27,0.18
2013-2-20,34.4,26.8,19.5,17.8,13.7,11.2,70,58,46,30.34,30.21,16,2,16,0.00
2013-2-21,37.3,29.2,20.2,28.1,19.3,13.2,85,67,50,30.35,30.00,17,3,17,0.22
2013-2-22,50.2,40.2,32.1,41.2,34.8,28.1,90,82,68,30.01,29.86,19,2,19,0.11
2013-2-23,47.7,37.9,29.1,32.9,25.9,22.3,82,63,43,30.03,29.91,11,1,11,0.00
2013-2-24,49.9,36.0,23.3,29.5,23.8,17.9,83,63,40,30.16,29.98,8,0,8,0.00
2013-2-25,51.9,39.0,26.3,28.0,24.6,21.8,84,59,36,30.12,29.77,18,3,18,0.00
2013-2-26,49.1,43.7,40.0,46.3,37.2,24.8,90,79,48,29.77,29.34,21,3,21,0.52
2013-2-27,40.7,37.5,33.3,35.8,32.1,28.8,87,81,67,29.80,29.56,22,6,22,0.04
2013-2-28,37.1,34.9,32.9,32.2,30.3,27.9,86,83,81,30.00,29.78,14,4,16,0.00
2013-3-1,40.4,35.4,33.0,32.8,30.9,29.5,88,84,69,30.03,29.96,10,1,10,0.01
2013-3-2,33.1,30.9,29.6,29.9,23.9,20.8,88,75,67,30.12,30.02,11,2,11,0.00
2013-3-3,41.2,32.3,24.5,24.4,19.8,14.7,79,61,39,30.15,30.06,14,2,15,0.00
2013-3-4,44.3,33.7,19.4,26.4,20.4,14.7,85,60,40,30.16,29.93,11,1,11,0.00
2013-3-5,45.7,39.2,30.3,42.9,33.6,25.5,90,81,55,29.92,29.59,29,3,29,0.31
2013-3-6,35.1,32.4,30.1,28.4,27.0,25.6,90,80,75,30.31,29.81,23,4,23,0.00
2013-3-7,38.4,34.6,31.4,31.7,27.3,25.6,85,75,66,30.40,30.29,6,0,7,0.00
2013-3-8,49.9,39.7,27.0,29.5,26.7,22.2,84,61,42,30.45,30.33,12,2,12,0.00
2013-3-9,61.9,47.0,30.4,37.0,31.6,24.8,81,58,33,30.34,30.01,13,1,13,0.00
2013-3-10,71.3,60.0,47.8,46.5,36.5,33.3,72,43,29,30.01,29.76,18,3,24,0.02
2013-3-11,55.3,48.2,38.2,51.1,42.9,31.6,90,82,65,29.92,29.66,26,4,27,1.02
2013-3-12,51.6,41.3,35.5,33.7,29.0,23.6,82,63,45,30.10,29.92,20,5,20,0.00
2013-3-13,37.3,33.1,27.2,30.5,21.4,14.7,79,62,46,30.39,30.07,21,5,22,0.00
2013-3-14,48.3,33.6,21.1,31.6,22.8,15.9,86,67,35,30.41,30.22,14,2,14,0.00
2013-3-15,64.6,46.1,28.9,44.1,36.1,25.8,90,71,45,30.22,29.74,10,1,10,0.00
2013-3-16,72.1,60.8,43.1,54.0,47.1,37.3,81,61,47,29.98,29.64,30,6,30,0.00
2013-3-17,43.0,37.4,33.3,37.6,33.9,30.1,90,87,81,30.08,29.89,16,3,16,0.89
2013-3-18,53.6,42.3,36.1,48.9,38.4,33.2,90,86,76,29.90,29.63,21,3,21,0.85
2013-3-19,49.6,40.2,31.3,34.1,24.0,15.0,87,56,27,30.16,29.89,24,4,24,0.00
2013-3-20,44.6,33.7,25.1,25.5,18.5,11.2,72,54,37,30.15,30.02,23,4,26,0.00
2013-3-21,37.4,27.8,20.1,18.1,12.4,9.7,65,53,36,30.08,30.00,14,2,14,0.00
2013-3-22,45.4,32.8,18.5,23.6,17.4,13.7,83,55,35,30.11,30.00,11,1,12,0.00
2013-3-23,56.4,45.4,37.5,31.0,25.3,20.3,57,46,35,30.04,29.81,12,2,13,0.00
2013-3-24,47.5,39.4,35.5,37.2,32.0,24.6,90,77,43,29.81,29.38,21,3,21,0.39
2013-3-25,37.5,33.5,31.9,32.2,29.0,27.0,88,83,78,30.02,29.48,23,6,23,0.02
2013-3-26,41.7,36.5,32.8,31.6,27.9,24.9,87,72,54,30.30,30.02,18,3,18,0.00
2013-3-27,47.8,38.3,29.0,31.3,25.3,22.6,78,60,43,30.36,30.29,13,2,15,0.00
2013-3-28,54.9,39.2,24.0,31.2,25.2,19.8,86,60,33,30.39,30.28,10,1,14,0.00
2013-3-29,58.4,43.8,30.9,43.7,34.3,25.1,84,70,50,30.32,30.18,14,1,14,0.00
2013-3-30,61.9,47.1,34.7,45.9,37.4,31.5,90,72,38,30.22,29.92,12,1,12,0.00
2013-3-31,62.7,52.6,47.2,50.7,45.5,41.0,90,78,55,29.92,29.80,18,2,18,0.02
2013-4-1,54.4,46.1,38.9,41.6,31.0,21.3,87,58,33,30.14,29.82,20,3,20,0.00
2013-4-2,51.6,40.3,25.7,27.1,20.2,13.2,79,48,23,30.29,30.14,12,1,13,0.00
2013-4-3,52.1,40.8,25.9,24.3,19.1,15.5,76,45,27,30.39,30.26,15,2,15,0.00
2013-4-4,55.0,45.9,38.5,29.6,22.3,15.9,64,39,32,30.27,29.99,11,2,11,0.00
2013-4-5,68.5,50.3,30.4,39.8,30.9,25.2,84,52,27,30.10,29.98,15,1,15,0.00
2013-4-6,74.1,57.3,39.0,44.6,35.7,29.3,73,47,27,30.14,29.88,19,2,19,0.00
2013-4-7,73.1,65.7,59.5,56.9,47.0,38.6,64,51,38,29.95,29.87,23,4,23,0.00
2013-4-8,74.3,64.2,51.9,58.6,52.1,46.0,83,66,55,29.94,29.85,24,3,24,0.00
2013-4-9,82.7,69.8,57.3,62.5,57.6,50.8,82,67,47,30.02,29.88,21,4,22,0.00
2013-4-10,84.5,74.3,60.0,66.1,60.7,54.9,85,64,50,29.93,29.70,23,4,23,0.00
2013-4-11,74.6,65.5,54.7,62.0,59.0,51.8,90,81,55,29.77,29.49,17,2,18,1.15
2013-4-12,55.7,47.6,39.2,51.8,37.8,32.2,90,70,53,29.95,29.56,24,5,24,0.02
2013-4-13,63.2,49.2,34.9,41.9,35.5,29.7,83,61,41,30.06,29.96,19,3,20,0.00
2013-4-14,77.3,57.6,38.5,48.4,41.9,34.7,88,60,29,30.00,29.80,22,2,23,0.00
2013-4-15,73.0,64.9,58.9,58.4,52.8,48.2,78,65,54,29.96,29.86,12,2,12,0.00
2013-4-16,82.8,68.6,55.5,69.3,60.7,51.1,90,76,59,30.09,29.90,16,2,16,0.21
2013-4-17,78.3,66.3,60.0,70.4,61.9,57.1,90,86,70,30.10,29.89,14,1,14,0.04
2013-4-18,83.9,73.8,61.7,65.7,59.7,54.6,90,64,42,29.89,29.55,31,5,31,0.00
2013-4-19,75.4,47.4,39.2,60.8,38.6,31.2,89,72,53,30.04,29.48,27,6,27,1.00
2013-4-20,58.1,46.8,34.4,37.1,31.0,24.1,85,57,28,30.36,30.04,18,3,18,0.00
2013-4-21,61.4,49.3,37.5,36.2,31.1,27.1,73,51,32,30.47,30.29,15,2,15,0.00
2013-4-22,74.7,55.8,36.0,50.0,40.0,31.8,87,59,33,30.32,30.07,13,1,13,0.00
2013-4-23,71.9,60.1,44.3,54.7,48.9,40.7,89,68,52,30.10,29.83,20,3,20,0.00
2013-4-24,67.7,51.8,36.6,55.8,44.2,32.6,89,76,62,30.25,29.77,22,4,22,0.73
2013-4-25,63.8,48.2,32.9,45.0,36.4,30.3,90,67,40,30.36,30.25,20,2,20,0.00
2013-4-26,63.9,51.2,35.9,42.4,35.9,31.5,89,59,34,30.42,30.29,11,1,11,0.00
2013-4-27,59.6,54.5,49.9,53.3,48.4,41.7,90,80,68,30.33,29.95,15,0,15,0.05
2013-4-28,67.4,58.8,54.1,60.7,54.3,51.2,90,85,70,29.94,29.83,21,3,21,0.07
2013-4-29,69.3,60.5,52.6,56.3,53.2,48.8,89,78,56,30.00,29.90,11,1,11,0.00
2013-4-30,82.3,64.1,45.0,61.0,51.8,42.2,90,68,37,30.00,29.92,10,1,10,0.00
2013-5-1,85.3,68.9,51.2,64.9,56.0,48.4,90,67,37,30.12,30.00,11,1,11,0.00
2013-5-2,78.5,68.7,57.9,64.2,56.8,53.1,86,67,50,30.14,30.02,13,1,13,0.00
2013-5-3,77.5,67.5,60.6,60.7,57.8,55.8,90,72,51,30.02,29.83,21,1,21,0.04
2013-5-4,61.1,56.6,52.6,58.1,51.3,48.1,90,83,63,29.96,29.86,8,0,8,0.90
2013-5-5,55.1,53.4,51.5,51.4,50.1,48.1,90,88,84,29.94,29.84,18,3,18,0.59
2013-5-6,69.0,58.5,52.5,57.3,53.1,49.7,90,83,60,29.91,29.78,18,2,18,0.10
2013-5-7,75.4,63.9,54.6,58.5,55.1,51.6,90,75,49,29.95,29.87,12,1,12,0.03
2013-5-8,79.5,66.9,53.2,61.1,56.1,50.3,90,71,45,29.98,29.90,10,0,10,0.00
2013-5-9,83.0,69.0,56.8,64.9,59.6,53.6,90,74,42,30.01,29.90,16,2,16,0.02
2013-5-10,67.3,65.1,63.0,64.3,61.0,58.3,90,87,79,29.92,29.79,14,1,14,0.72
2013-5-11,65.8,58.5,52.6,60.6,52.1,40.4,90,80,61,30.01,29.84,13,2,13,0.08
2013-5-12,61.4,52.5,42.0,40.4,35.4,31.0,73,53,34,30.14,30.01,19,3,20,0.00
2013-5-13,67.8,53.5,38.5,42.6,37.5,33.0,89,59,29,30.20,30.10,22,2,22,0.00
2013-5-14,85.0,66.1,45.0,63.0,51.2,39.5,82,61,44,30.14,29.82,23,4,23,0.00
2013-5-15,88.0,77.5,68.1,65.0,58.8,53.1,71,54,34,29.94,29.83,20,5,22,0.00
2013-5-16,76.7,70.7,62.3,65.2,59.3,50.1,90,68,50,29.94,29.85,15,2,15,0.00
2013-5-17,76.9,68.0,60.5,66.4,62.0,57.6,90,82,60,30.01,29.93,13,1,13,0.01
2013-5-18,78.7,71.0,65.6,68.7,64.9,62.6,90,81,67,30.00,29.90,8,0,9,0.00
2013-5-19,88.1,74.5,61.2,73.4,66.7,58.2,90,78,56,29.96,29.83,12,1,13,0.00
2013-5-20,87.8,77.3,65.9,73.3,68.0,62.6,90,74,56,29.95,29.83,15,3,15,0.00
2013-5-21,86.2,75.6,68.7,69.8,65.3,61.0,84,71,52,29.93,29.77,21,3,21,0.02
2013-5-22,80.2,71.4,64.9,67.8,63.8,60.6,89,77,60,29.80,29.72,21,3,21,0.03
2013-5-23,72.5,65.4,55.7,62.8,58.2,48.2,90,78,61,30.08,29.78,18,3,18,0.03
2013-5-24,70.3,58.9,49.2,50.1,45.5,38.5,85,64,32,30.31,30.08,15,1,15,0.00
2013-5-25,72.7,58.4,43.1,52.5,44.7,37.8,90,64,30,30.35,30.16,12,1,12,0.00
2013-5-26,75.9,64.7,55.3,55.7,52.3,46.8,89,66,45,30.26,30.11,11,1,11,0.02
2013-5-27,87.3,73.7,58.1,64.1,58.0,52.1,84,60,38,30.12,29.91,21,3,21,0.00
2013-5-28,88.7,79.0,70.9,67.8,62.0,59.4,70,57,43,29.99,29.89,26,4,26,0.00
2013-5-29,90.8,77.6,63.2,68.0,63.4,58.4,85,64,42,30.05,29.94,20,2,20,0.00
2013-5-30,90.3,79.2,68.8,71.0,66.8,61.9,85,66,52,30.07,29.94,19,3,19,0.00
2013-5-31,82.3,76.2,73.2,74.5,68.0,64.2,90,76,67,30.00,29.88,24,3,24,0.04
2013-6-1,76.1,71.3,64.4,69.6,65.9,60.3,90,83,70,29.93,29.74,18,2,18,0.28
2013-6-2,81.0,71.5,65.1,67.5,62.9,59.1,89,75,53,29.91,29.83,14,3,14,0.00
2013-6-3,75.3,66.4,58.5,59.1,55.9,52.1,85,70,49,30.02,29.90,10,1,11,0.00
2013-6-4,80.0,66.6,51.5,60.0,55.2,48.7,90,69,48,30.08,29.97,11,1,11,0.00
2013-6-5,86.8,72.3,58.0,66.6,59.7,52.8,84,66,46,30.01,29.79,9,0,9,0.00
2013-6-6,81.6,73.3,66.9,69.5,65.9,62.4,90,78,59,29.81,29.71,11,1,11,0.04
2013-6-7,82.8,71.2,63.0,65.2,61.7,59.6,90,74,49,29.82,29.73,10,1,11,0.00
2013-6-8,84.2,73.7,65.3,67.5,62.6,59.8,84,69,47,29.98,29.81,12,1,12,0.00
2013-6-9,82.3,72.4,63.4,71.2,64.8,59.9,90,78,56,30.00,29.83,12,1,12,0.09
2013-6-10,78.7,71.5,65.7,68.7,64.8,62.6,90,80,65,29.87,29.75,16,3,16,0.31
2013-6-11,87.8,76.5,64.3,69.4,65.7,60.1,88,71,50,29.96,29.86,13,2,13,0.00
2013-6-12,93.8,83.9,72.8,78.7,73.2,68.3,90,72,52,29.92,29.71,23,4,25,0.00
2013-6-13,83.6,80.0,68.7,73.9,66.5,53.4,75,64,47,29.92,29.62,26,5,28,0.00
2013-6-14,85.3,71.8,55.7,62.5,57.1,51.3,86,62,39,30.01,29.90,10,1,10,0.00
2013-6-15,89.3,75.8,60.0,66.7,62.3,57.1,90,66,41,30.07,29.92,15,2,15,0.00
2013-6-16,86.0,74.4,67.6,71.8,66.9,63.4,90,78,60,30.01,29.91,36,1,36,0.58
2013-6-17,90.4,73.5,66.6,75.6,66.9,62.8,90,81,54,29.96,29.83,19,1,19,0.49
2013-6-18,88.3,74.3,64.7,70.8,64.4,58.6,90,73,50,29.93,29.80,21,1,21,0.01
2013-6-19,84.5,73.4,62.0,66.5,62.7,59.0,90,71,49,30.05,29.92,11,1,11,0.00
2013-6-20,88.5,76.5,61.7,67.2,62.9,58.1,90,66,38,30.14,30.05,12,0,12,0.00
2013-6-21,91.5,78.3,64.4,71.9,66.5,61.3,90,69,45,30.16,30.05,12,1,12,0.00
2013-6-22,91.8,80.2,68.3,75.4,69.2,65.0,90,71,48,30.14,30.00,16,2,16,0.00
2013-6-23,89.3,77.2,66.9,75.1,68.8,63.9,90,76,52,30.09,30.00,17,1,18,0.22
2013-6-24,79.6,74.0,69.5,74.1,69.0,66.4,90,85,73,30.11,30.01,11,1,12,0.06
2013-6-25,93.5,80.4,67.0,77.7,71.4,64.0,90,75,52,30.03,29.85,14,2,15,0.00
2013-6-26,89.3,76.4,68.2,76.8,70.1,64.9,90,82,59,29.95,29.70,19,3,19,1.40
2013-6-27,90.6,78.7,68.9,78.2,71.7,65.8,90,80,58,29.77,29.70,14,2,15,0.01
2013-6-28,89.1,81.3,74.3,72.1,65.9,59.1,83,61,39,29.71,29.57,20,3,20,0.00
2013-6-29,84.5,74.4,64.7,71.0,64.0,60.1,90,71,53,29.62,29.53,16,2,16,0.30
2013-6-30,83.6,71.1,64.5,68.3,64.3,61.4,90,80,53,29.77,29.60,17,1,17,0.02
2013-7-1,82.3,69.6,63.5,68.7,64.0,59.9,90,83,52,29.86,29.75,13,1,13,0.84
2013-7-2,83.3,72.2,63.9,71.0,64.6,60.9,90,78,55,29.98,29.85,13,1,13,0.01
2013-7-3,83.3,71.9,63.3,70.1,65.9,60.3,90,82,60,30.06,29.97,10,0,10,0.28
2013-7-4,71.5,69.5,67.4,68.4,66.5,64.4,90,90,90,30.10,30.02,7,0,7,0.44
2013-7-5,82.0,72.2,66.0,73.6,67.6,63.0,90,86,71,30.09,30.02,8,0,9,0.05
2013-7-6,75.1,69.9,66.5,68.3,65.9,63.5,90,87,77,30.08,30.03,13,0,13,0.49
2013-7-7,86.8,75.6,66.5,73.2,67.3,63.5,90,77,56,30.08,29.99,10,1,10,0.01
2013-7-8,89.9,78.5,67.0,75.5,70.1,64.0,90,77,55,30.10,30.00,11,1,12,0.00
2013-7-9,91.4,83.1,74.7,77.9,74.0,70.6,90,75,60,30.06,29.93,15,2,16,0.00
2013-7-10,91.5,79.1,70.6,80.5,73.0,66.7,90,82,62,29.96,29.81,28,2,29,0.14
2013-7-11,84.5,75.8,68.8,69.4,65.6,60.9,90,73,49,29.96,29.88,14,1,14,0.00
2013-7-12,83.0,73.2,59.6,62.3,59.2,55.8,89,63,44,30.05,29.95,14,2,15,0.00
2013-7-13,84.1,73.6,63.1,68.6,63.2,58.8,88,71,54,30.06,29.98,14,2,14,0.00
2013-7-14,92.0,78.7,67.3,75.0,69.4,63.2,90,75,51,30.14,30.04,10,0,10,0.06
2013-7-15,91.8,81.6,71.6,74.9,71.4,68.5,90,73,52,30.24,30.14,12,0,14,0.01
2013-7-16,93.7,83.4,71.0,77.6,72.8,67.9,90,72,49,30.28,30.19,8,0,8,0.00
2013-7-17,95.3,83.0,73.4,80.2,73.9,68.6,90,75,49,30.27,30.13,10,0,10,0.00
2013-7-18,94.4,83.9,75.4,80.5,75.5,72.2,90,77,56,30.16,29.98,12,0,12,0.00
2013-7-19,92.7,83.1,73.5,77.9,73.0,69.6,89,73,53,30.01,29.86,15,2,15,0.00
2013-7-20,92.6,82.0,74.3,76.8,72.8,69.2,89,75,55,29.90,29.81,16,2,16,0.02
2013-7-21,90.5,78.8,71.7,75.8,70.6,64.8,90,77,57,29.92,29.81,12,0,12,0.05
2013-7-22,82.7,75.1,71.4,75.8,70.9,68.3,90,87,74,29.88,29.74,16,1,16,1.55
2013-7-23,91.3,79.5,71.1,78.7,72.4,68.0,90,80,61,29.82,29.68,13,2,15,0.01
2013-7-24,80.5,72.7,64.0,69.6,61.7,56.4,80,69,52,29.93,29.77,12,1,12,0.00
2013-7-25,82.0,71.3,60.1,64.2,59.6,56.0,87,68,47,30.04,29.93,9,1,9,0.00
2013-7-26,84.0,72.2,59.1,66.9,61.9,56.1,90,72,51,30.04,29.93,12,0,12,0.00
2013-7-27,80.2,71.5,66.1,68.1,63.6,57.1,90,77,57,29.94,29.83,16,2,18,0.03
2013-7-28,77.3,66.7,51.8,60.0,53.9,48.1,90,65,45,30.04,29.91,14,2,14,0.00
2013-7-29,83.5,69.6,55.6,66.2,59.3,52.7,90,72,47,30.14,30.04,11,1,11,0.00
2013-7-30,80.5,69.0,61.2,66.3,62.6,58.2,90,81,57,30.17,30.07,10,0,10,0.10
2013-7-31,76.7,70.8,66.3,69.6,66.3,62.4,90,86,78,30.09,29.91,7,0,7,0.00
2013-8-1,85.5,74.9,66.5,70.2,65.0,59.8,90,73,44,29.98,29.90,15,1,15,0.00
2013-8-2,86.3,74.7,61.6,69.0,64.3,58.6,90,72,50,29.99,29.92,13,1,13,0.00
2013-8-3,88.2,77.7,70.5,75.4,69.0,65.2,84,75,63,30.00,29.91,10,1,12,0.00
2013-8-4,81.2,72.6,61.3,67.0,59.1,56.2,89,64,45,30.09,29.99,10,1,13,0.00
2013-8-5,84.5,71.4,55.7,64.1,58.4,52.8,90,66,43,30.08,29.90,10,0,11,0.00
2013-8-6,85.1,77.7,70.4,74.2,68.9,62.1,88,75,65,29.92,29.85,10,0,10,0.00
2013-8-7,86.7,78.7,71.4,78.1,72.8,68.3,90,83,69,29.91,29.82,10,1,10,0.00
2013-8-8,90.3,80.7,73.1,77.5,73.7,70.0,90,80,63,29.92,29.82,13,2,13,0.00
2013-8-9,84.9,78.0,75.5,78.2,74.0,71.8,90,88,75,29.97,29.86,10,1,12,0.48
2013-8-10,84.7,77.5,73.4,75.8,72.9,70.3,90,86,71,30.06,29.97,10,0,10,0.06
2013-8-11,90.1,79.9,71.8,74.4,70.9,67.1,90,76,55,30.05,29.98,12,1,12,0.00
2013-8-12,89.0,73.9,66.7,77.6,69.0,63.7,90,85,62,30.04,29.85,18,1,18,0.10
2013-8-13,83.0,74.1,65.6,75.0,66.3,54.3,90,78,59,30.01,29.83,13,1,13,0.50
2013-8-14,75.8,65.1,55.6,56.7,52.4,49.8,82,65,45,30.12,30.02,11,1,11,0.00
2013-8-15,77.8,64.4,51.9,57.9,54.0,49.1,90,71,45,30.12,30.01,13,1,13,0.00
2013-8-16,82.5,69.5,55.5,62.5,57.5,52.6,90,68,47,30.09,30.03,12,1,12,0.00
2013-8-17,84.8,73.5,65.4,67.4,62.3,57.6,79,69,53,30.12,30.03,10,1,11,0.00
2013-8-18,85.7,73.4,61.0,68.0,63.3,58.0,90,73,48,30.13,30.03,10,0,10,0.00
2013-8-19,87.8,75.6,64.6,70.6,66.0,61.6,90,74,50,30.09,29.99,7,0,7,0.00
2013-8-20,85.9,74.8,64.4,72.7,67.6,61.4,90,79,60,30.10,30.01,9,0,10,0.00
2013-8-21,90.9,78.4,66.8,76.0,69.9,63.8,90,77,53,30.12,30.00,12,1,12,0.00
2013-8-22,91.5,80.3,70.9,76.0,70.6,67.8,90,74,49,30.08,29.96,14,1,14,0.00
2013-8-23,89.4,78.4,69.2,71.8,68.0,64.8,90,72,46,30.07,29.97,11,0,11,0.00
2013-8-24,90.2,76.9,64.2,69.2,62.7,56.0,90,66,34,30.19,30.07,14,1,14,0.00
2013-8-25,91.3,76.1,60.1,72.6,65.0,57.2,90,71,41,30.28,30.16,9,0,9,0.00
2013-8-26,92.5,79.9,68.2,75.1,70.1,65.2,90,74,50,30.21,30.05,13,2,13,0.00
2013-8-27,92.6,81.8,73.2,77.9,73.1,69.5,89,76,58,30.07,29.93,12,2,12,0.00
2013-8-28,97.8,84.3,73.7,75.1,71.2,68.0,89,68,41,29.97,29.87,20,3,20,0.00
2013-8-29,94.1,83.5,72.9,76.5,70.5,68.0,86,66,45,29.96,29.88,9,1,9,0.00
2013-8-30,96.0,82.7,69.6,75.9,71.1,66.5,90,70,46,29.93,29.79,12,1,12,0.00
2013-8-31,96.0,82.6,70.0,78.8,73.1,66.9,90,74,54,29.88,29.69,30,3,30,0.45
2013-9-1,89.4,77.8,69.3,75.6,70.6,66.2,90,80,60,29.88,29.68,15,3,18,0.41
2013-9-2,90.1,77.5,70.4,76.7,71.1,65.5,90,81,55,29.84,29.76,15,1,15,0.27
2013-9-3,82.5,72.1,63.1,66.5,61.2,55.9,88,70,46,30.02,29.83,13,1,13,0.00
2013-9-4,84.2,71.2,56.0,64.2,60.0,53.1,90,70,43,30.12,30.01,5,0,15,0.00
2013-9-5,87.8,79.4,64.9,67.6,64.9,61.4,90,63,45,30.16,30.08,8,1,8,0.00
2013-9-6,87.5,74.5,62.8,69.2,64.1,59.8,90,72,45,30.16,30.03,8,0,8,0.00
2013-9-7,89.3,75.6,61.9,71.8,66.1,58.9,90,74,51,30.05,29.91,12,1,12,0.00
2013-9-8,91.2,78.5,71.0,73.4,69.6,66.7,90,76,53,29.95,29.88,12,1,12,0.01
2013-9-9,94.3,80.4,67.2,75.8,70.2,64.2,90,73,50,29.99,29.91,14,1,14,0.00
2013-9-10,94.4,81.9,73.5,77.7,72.5,69.1,87,74,54,30.09,29.98,13,2,13,0.00
2013-9-11,92.8,79.9,71.3,77.3,72.0,68.1,90,78,59,30.13,30.01,14,2,14,0.00
2013-9-12,82.7,76.0,69.4,73.5,68.8,64.0,89,79,60,30.01,29.86,12,1,13,0.06
2013-9-13,72.5,66.0,54.1,64.0,51.9,45.4,82,62,42,30.04,29.90,18,2,18,0.00
2013-9-14,74.0,59.3,46.8,50.7,47.3,43.6,90,68,37,30.14,30.03,11,1,11,0.00
2013-9-15,82.4,64.1,46.3,62.0,53.9,43.5,90,72,46,30.11,30.00,15,1,15,0.00
2013-9-16,75.5,69.2,64.9,63.7,60.9,57.4,83,75,63,30.20,30.03,12,1,12,0.00
2013-9-17,79.5,66.1,54.8,57.6,55.0,51.3,88,70,43,30.24,30.09,13,1,13,0.00
2013-9-18,79.8,68.7,59.6,69.5,62.6,54.6,90,81,68,30.12,30.02,11,1,11,0.03
2013-9-19,86.4,73.7,64.7,73.0,67.3,61.7,90,81,62,30.09,29.94,14,1,14,0.00
2013-9-20,87.8,74.8,68.1,72.5,68.3,65.1,90,81,58,29.95,29.77,15,2,15,0.85
2013-9-21,75.5,66.1,55.1,65.1,57.5,50.9,90,76,44,29.85,29.69,13,1,13,0.53
2013-9-22,72.5,59.9,48.3,52.5,50.1,45.5,90,72,47,29.97,29.84,14,1,14,0.00
2013-9-23,74.3,60.0,45.7,54.8,50.1,42.9,90,72,45,30.05,29.96,12,1,12,0.00
2013-9-24,81.1,64.5,50.5,65.1,56.5,47.7,90,77,53,30.02,29.83,6,0,9,0.00
2013-9-25,79.0,69.2,62.8,67.0,62.0,59.4,90,79,58,29.86,29.80,15,1,15,0.00
2013-9-26,80.1,66.1,53.4,59.4,54.8,48.4,90,71,36,30.02,29.86,11,0,11,0.00
2013-9-27,82.7,66.1,52.0,63.2,55.4,49.1,90,72,39,30.13,30.02,8,0,8,0.00
2013-9-28,83.5,67.2,52.1,66.4,57.8,49.3,90,74,46,30.14,30.02,12,1,12,0.00
2013-9-29,67.3,62.3,57.2,61.3,58.3,54.3,90,87,74,30.04,29.98,11,1,12,0.07
2013-9-30,78.7,68.2,62.3,65.9,61.7,59.3,90,81,62,30.00,29.91,13,1,13,0.02
2013-10-1,82.0,69.2,58.1,69.0,62.4,55.2,90,80,59,30.06,29.97,13,1,13,0.00
2013-10-2,82.8,70.7,62.5,73.6,66.6,59.5,90,87,70,30.08,30.00,11,1,11,0.07
2013-10-3,85.3,74.0,68.4,70.8,67.7,65.4,90,82,57,30.06,29.94,10,0,10,0.03
2013-10-4,86.9,73.3,65.2,72.1,67.0,62.1,90,82,59,30.05,29.96,19,1,19,0.51
2013-10-5,72.5,70.0,67.9,69.3,66.9,64.9,90,90,90,30.01,29.89,13,0,13,3.27
2013-10-6,70.3,63.3,54.9,67.2,59.8,47.5,90,88,76,29.91,29.76,12,2,18,1.25
2013-10-7,65.8,55.2,46.9,49.5,46.6,43.4,90,74,51,30.14,29.87,15,2,15,0.00
2013-10-8,69.7,55.3,42.7,50.5,46.0,40.0,90,74,45,30.23,30.12,14,1,15,0.01
2013-10-9,76.7,58.9,44.0,59.0,50.8,41.3,90,76,51,30.19,30.09,7,0,7,0.00
2013-10-10,76.0,60.5,47.4,57.4,51.4,44.6,90,75,46,30.16,30.04,9,0,12,0.00
2013-10-11,78.5,60.7,48.0,57.7,51.4,45.1,90,75,40,30.08,29.98,6,0,6,0.00
2013-10-12,81.2,63.3,50.2,62.8,55.5,47.3,90,78,45,30.09,30.00,10,0,10,0.00
2013-10-13,77.0,66.0,54.0,64.2,58.1,48.8,90,77,56,30.26,30.08,10,1,10,0.08
2013-10-14,74.0,60.2,49.7,55.8,49.7,42.9,89,70,50,30.29,30.12,9,0,9,0.00
2013-10-15,72.5,62.8,53.9,63.4,58.0,51.0,90,85,71,30.13,29.91,12,1,12,0.00
2013-10-16,65.7,61.9,50.1,61.7,56.6,47.0,90,83,71,29.95,29.87,9,1,9,0.02
2013-10-17,62.6,51.9,44.4,51.6,46.2,41.4,90,81,60,29.99,29.90,16,1,16,0.04
2013-10-18,68.0,53.2,41.2,52.9,45.3,38.5,90,77,49,30.05,29.93,15,1,15,0.01
2013-10-19,54.6,48.7,39.1,48.7,44.0,36.1,90,84,61,30.02,29.82,14,1,14,0.20
2013-10-20,64.3,49.1,38.9,46.6,40.7,35.9,90,75,48,30.07,29.98,16,2,16,0.01
2013-10-21,69.2,53.9,40.4,48.7,43.4,36.8,90,70,42,30.02,29.89,15,2,16,0.00
2013-10-22,58.7,48.7,35.2,46.4,37.1,30.5,90,66,40,30.05,29.80,15,1,15,0.01
2013-10-23,51.6,45.3,39.0,43.9,36.5,31.7,84,72,52,30.08,29.76,23,3,23,0.01
2013-10-24,46.9,40.8,32.3,36.5,32.4,25.9,83,72,56,30.32,30.07,18,1,18,0.01
2013-10-25,51.4,37.5,25.9,32.4,27.2,22.5,89,69,40,30.49,30.32,10,0,10,0.00
2013-10-26,58.4,42.6,29.4,39.3,32.6,24.9,84,69,47,30.31,29.96,21,3,21,0.00
2013-10-27,63.1,45.8,32.8,41.4,35.3,29.9,90,70,36,30.11,30.02,10,1,10,0.00
2013-10-28,66.6,49.0,38.2,44.2,38.9,34.3,89,71,38,30.26,30.07,5,0,5,0.00
2013-10-29,56.8,47.8,37.1,52.6,44.5,34.4,90,88,82,30.33,30.14,4,0,4,0.08
2013-10-30,70.5,62.2,55.1,65.7,58.9,52.2,90,89,84,30.15,29.99,11,0,11,1.14
2013-10-31,67.3,64.5,58.9,64.3,59.6,54.1,90,84,76,29.99,29.39,35,5,42,0.46
2013-11-1,68.5,58.5,49.2,54.5,48.5,43.3,88,71,44,29.77,29.48,28,4,28,0.00
2013-11-2,60.2,49.2,39.4,46.5,41.2,36.1,90,75,54,30.12,29.77,18,2,18,0.02
2013-11-3,57.9,45.0,33.2,41.7,35.7,30.0,90,72,45,30.32,30.12,7,0,7,0.00
2013-11-4,62.9,49.6,38.4,47.3,40.7,34.4,88,73,50,30.36,30.25,17,1,17,0.00
2013-11-5,63.4,52.8,46.0,45.9,44.3,41.8,87,74,49,30.37,30.18,7,0,7,0.00
2013-11-6,67.5,55.5,42.7,58.8,50.3,39.7,90,83,66,30.18,29.97,21,2,21,0.19
2013-11-7,52.7,43.9,36.6,41.4,32.7,26.1,88,67,38,30.31,30.09,14,2,14,0.04
2013-11-8,55.6,41.9,28.9,35.1,29.6,25.0,89,64,35,30.40,30.23,14,0,15,0.00
2013-11-9,64.2,48.2,30.2,38.6,33.3,26.2,86,59,36,30.24,30.07,18,3,26,0.00
2013-11-10,58.4,47.6,33.4,39.7,32.8,26.3,85,60,30,30.33,30.15,15,1,15,0.00
2013-11-11,65.7,47.0,29.4,44.0,31.8,24.6,89,61,23,30.30,30.09,14,1,14,0.01
2013-11-12,44.9,34.8,27.1,39.3,22.4,15.5,86,62,39,30.66,30.22,19,3,19,0.03
2013-11-13,43.9,31.1,21.1,26.4,20.9,16.8,87,68,39,30.69,30.43,12,1,12,0.00
2013-11-14,56.4,40.3,27.4,26.2,21.7,19.6,74,51,26,30.43,30.16,16,2,16,0.00
2013-11-15,54.9,46.0,36.4,44.2,32.5,21.0,89,61,45,30.18,30.08,14,1,14,0.09
2013-11-16,63.6,55.4,46.9,57.5,51.4,43.5,90,86,80,30.09,29.86,17,2,21,0.00
2013-11-17,68.0,62.3,51.4,64.2,56.4,40.9,90,82,48,29.86,29.54,26,4,26,2.63
2013-11-18,56.9,50.2,42.6,42.8,39.8,28.8,80,68,43,30.20,29.83,18,3,22,0.00
2013-11-19,45.4,37.2,30.5,31.0,27.9,25.1,83,69,54,30.33,30.21,10,1,10,0.00
2013-11-20,56.3,43.2,29.8,36.3,31.6,25.0,84,65,43,30.29,30.16,9,1,9,0.00
2013-11-21,63.8,50.7,36.7,51.4,43.6,32.1,90,77,62,30.28,30.14,13,1,13,0.05
2013-11-22,56.7,51.5,41.9,53.8,47.2,34.2,90,85,74,30.37,30.14,15,2,15,0.00
2013-11-23,45.4,35.7,23.4,34.6,23.1,10.4,79,61,32,30.60,30.35,20,3,20,0.00
2013-11-24,30.7,24.5,18.4,15.8,12.4,10.0,74,60,44,30.73,30.54,10,1,11,0.00
2013-11-25,40.5,32.7,22.7,30.2,19.7,13.5,86,60,43,30.54,30.19,16,2,16,0.00
2013-11-26,36.0,34.7,33.2,32.6,30.3,25.9,89,84,70,30.23,29.94,13,1,13,0.00
2013-11-27,35.2,28.4,19.4,26.3,18.2,10.2,74,65,55,30.36,29.97,17,4,18,0.00
2013-11-28,40.2,27.1,17.7,19.8,15.8,11.2,79,64,41,30.47,30.32,16,2,16,0.00
2013-11-29,46.1,31.0,19.4,27.6,21.4,15.1,89,69,46,30.63,30.47,6,0,6,0.00
2013-11-30,57.0,38.7,23.3,34.1,26.4,19.5,87,64,38,30.49,30.19,15,1,15,0.00
2013-12-1,57.0,48.1,40.4,39.7,34.0,28.6,75,59,50,30.19,29.94,12,2,12,0.00
2013-12-2,56.7,45.7,35.5,43.2,37.9,31.5,87,75,59,29.95,29.73,5,0,6,0.00
2013-12-3,58.7,48.4,36.1,51.0,43.8,32.6,90,84,72,29.83,29.74,9,0,9,0.00
2013-12-4,69.3,59.3,47.2,60.9,53.4,43.8,90,82,69,29.81,29.66,17,2,17,0.01
2013-12-5,67.8,49.1,34.0,61.8,44.3,30.0,90,83,74,30.15,29.75,17,3,17,0.38
2013-12-6,34.0,29.4,27.1,30.0,25.8,23.4,88,86,83,30.41,30.10,12,1,12,0.67
2013-12-7,27.2,23.8,19.3,23.6,18.8,14.3,90,81,76,30.62,30.41,0,0,0,0.00
2013-12-8,33.2,27.4,22.5,30.6,23.7,18.0,90,86,79,30.50,30.04,7,0,7,0.15
2013-12-9,33.2,29.8,25.6,30.6,25.2,18.8,90,83,75,30.27,30.04,15,2,16,0.00
2013-12-10,31.5,25.0,19.7,22.1,18.6,15.6,90,77,62,30.39,30.19,19,2,19,0.01
2013-12-11,38.2,26.5,16.9,27.5,19.7,12.7,88,76,63,30.56,30.33,19,2,21,0.00
2013-12-12,29.2,21.4,10.0,14.3,10.2,5.0,82,63,39,30.62,30.38,12,2,12,0.00
2013-12-13,43.6,31.6,19.4,30.8,20.7,12.2,89,65,45,30.38,30.11,14,1,15,0.03
2013-12-14,40.4,36.4,33.7,37.7,33.5,30.1,90,89,85,30.13,29.72,16,2,16,0.41
2013-12-15,33.9,30.1,27.5,30.2,24.6,22.1,86,80,75,30.16,29.95,17,4,18,0.00
2013-12-16,46.8,36.8,31.0,35.8,30.6,25.9,86,78,65,30.15,30.01,12,2,12,0.00
2013-12-17,42.5,35.0,28.5,35.9,29.2,24.2,85,79,68,30.23,29.98,18,2,18,0.00
2013-12-18,44.7,34.0,24.1,24.3,21.2,17.6,87,62,36,30.33,30.08,14,2,14,0.00
2013-12-19,62.2,49.8,37.0,45.6,34.5,21.5,66,56,45,30.12,29.95,27,4,27,0.00
2013-12-20,62.9,57.6,52.7,58.3,49.6,38.4,90,75,53,29.96,29.81,19,4,19,0.01
2013-12-21,69.8,63.3,59.4,63.8,59.5,56.5,90,87,81,29.82,29.41,47,4,47,2.63
2013-12-22,61.2,50.8,37.7,58.0,46.4,32.8,90,85,79,30.09,29.53,25,5,25,0.17
2013-12-23,37.7,32.2,26.6,33.1,25.1,18.7,86,75,67,30.44,30.09,14,3,14,0.01
2013-12-24,26.9,21.7,15.1,21.2,11.5,5.9,82,65,50,30.61,30.42,15,2,15,0.00
2013-12-25,41.1,28.8,16.0,24.9,17.6,11.2,83,64,45,30.49,30.24,13,1,13,0.00
2013-12-26,43.9,35.5,28.9,29.8,26.1,23.3,80,69,50,30.41,30.24,16,2,16,0.00
2013-12-27,51.9,36.6,25.4,33.4,26.6,21.0,85,69,45,30.44,30.33,15,1,15,0.00
2013-12-28,50.9,39.5,30.3,35.0,28.8,23.3,84,66,49,30.34,30.01,10,1,10,0.03
2013-12-29,48.4,39.4,30.8,43.1,35.1,26.0,90,85,74,30.10,29.85,22,3,22,0.36
2013-12-30,31.3,28.0,23.5,26.2,20.3,14.5,84,73,61,30.29,30.10,13,2,13,0.00
2013-12-31,39.9,29.8,22.1,24.3,19.2,14.5,76,65,48,30.43,30.23,12,2,12,0.00
2014-1-1,48.3,37.4,29.4,31.1,26.5,21.8,79,66,43,30.30,29.99,13,2,14,0.00
2014-1-2,37.6,28.2,15.2,34.2,23.3,7.8,90,82,72,30.35,29.82,21,3,27,0.08